Dades meteomassalio
Diari Summary for Diciembre 31, 2017 Units:  Metric    English   Both
« Previous Day
Next Day »
Diari Semanal Mensual Anual Personalitzat
  Maxima: Minima: Mijana:
Temperatura: -17.8 °C -17.8 °C -14.2 °C
Rosada: -17.8 °C -18.5 °C -16.2 °C
Humitat: Humidity % 59 % 79 %
Velocitat del vent: 0 km/h 0 km/h 10.3 km/h
Racha vent: 0 km/h - -
Vent:- - WNW
Pressio: 0 hPa 34591.4 hPa -
Pluja: 0 mm    
Historical Graphs
 
 
Tabular Data for Diciembre 31, 2017
Time Temperature Dew Point Pressure Wind Wind Speed Wind Gust Humidity Rainfall Rate (Hourly) solar Conditions
-17.8 °C -17.8 °C 0 hPa Calm     Humidity % 0 mm SolarRadiationWatts/m^2 W/m2 Conditions
00:00 -15.9 °C -17.1 °C 34818.2 hPa Calm     86 % 0 mm 0.0 W/m2 CLR
00:05 -15.9 °C -17.1 °C 34818.2 hPa Calm     86 % 0 mm 0.0 W/m2 CLR
00:07 -15.6 °C -16.8 °C 34818.2 hPa Calm     86 % 0 mm 0.0 W/m2 CLR
00:10 -15.6 °C -16.9 °C 34818.2 hPa Calm     85 % 0 mm 0.0 W/m2 CLR
00:15 -15.9 °C -17.2 °C 34808.1 hPa Calm     85 % 0 mm 0.0 W/m2 CLR
00:19 -15.9 °C -17.1 °C 34818.2 hPa Calm     86 % 0 mm 0.0 W/m2 CLR
00:22 -15.9 °C -17.1 °C 34808.1 hPa Calm     86 % 0 mm 0.0 W/m2 CLR
00:24 -15.9 °C -17.1 °C 34808.1 hPa Calm     86 % 0 mm 0.0 W/m2 CLR
00:28 -15.9 °C -17.1 °C 34808.1 hPa Calm     86 % 0 mm 0.0 W/m2 CLR
00:29 -15.9 °C -17.1 °C 34808.1 hPa Calm     86 % 0 mm 0.0 W/m2 CLR
00:34 -15.9 °C -17.1 °C 34808.1 hPa Calm     86 % 0 mm 0.0 W/m2 CLR
00:37 -15.9 °C -17.1 °C 34808.1 hPa Calm     86 % 0 mm 0.0 W/m2 CLR
00:40 -15.9 °C -17.1 °C 34808.1 hPa Calm     86 % 0 mm 0.0 W/m2 CLR
00:45 -15.9 °C -17.1 °C 34808.1 hPa Calm     86 % 0 mm 0.0 W/m2 CLR
00:48 -15.9 °C -17 °C 34808.1 hPa Calm     87 % 0 mm 0.0 W/m2 CLR
00:51 -16.2 °C -17.3 °C 34808.1 hPa Calm     87 % 0 mm 0.0 W/m2 CLR
00:56 -16.2 °C -17.3 °C 34808.1 hPa Calm     87 % 0 mm 0.0 W/m2 CLR
00:58 -16.2 °C -17.3 °C 34808.1 hPa Calm     87 % 0 mm 0.0 W/m2 CLR
01:03 -16.2 °C -17.2 °C 34808.1 hPa Calm     88 % 0 mm 0.0 W/m2 CLR
01:08 -16.2 °C -17.2 °C 34808.1 hPa Calm     88 % 0 mm 0.0 W/m2 CLR
01:13 -16.2 °C -17.2 °C 34808.1 hPa Calm     88 % 0 mm 0.0 W/m2 CLR
01:15 -16.2 °C -17.2 °C 34808.1 hPa Calm     88 % 0 mm 0.0 W/m2 CLR
01:20 -16.2 °C -17.2 °C 34808.1 hPa Calm     88 % 0 mm 0.0 W/m2 CLR
01:25 -16.2 °C -17.1 °C 34808.1 hPa Calm     89 % 0 mm 0.0 W/m2 CLR
01:26 -16.2 °C -17.1 °C 34808.1 hPa Calm     89 % 0 mm 0.0 W/m2 CLR
01:31 -16.2 °C -17.1 °C 34808.1 hPa Calm     89 % 0 mm 0.0 W/m2 CLR
01:36 -16.6 °C -17.4 °C 34808.1 hPa Calm     89 % 0 mm 0.0 W/m2 CLR
01:37 -16.6 °C -17.4 °C 34808.1 hPa Calm     89 % 0 mm 0.0 W/m2 CLR
01:41 -16.6 °C -17.4 °C 34808.1 hPa Calm     89 % 0 mm 0.0 W/m2 CLR
01:45 -16.6 °C -17.4 °C 34808.1 hPa Calm     89 % 0 mm 0.0 W/m2 CLR
01:47 -16.6 °C -17.4 °C 34808.1 hPa Calm     89 % 0 mm 0.0 W/m2 CLR
01:52 -16.6 °C -17.6 °C 34808.1 hPa Calm     88 % 0 mm 0.0 W/m2 CLR
01:53 -16.6 °C -17.6 °C 34808.1 hPa Calm     88 % 0 mm 0.0 W/m2 CLR
01:58 -16.6 °C -17.4 °C 34797.9 hPa Calm     89 % 0 mm 0.0 W/m2 CLR
01:59 -16.6 °C -17.4 °C 34808.1 hPa Calm     89 % 0 mm 0.0 W/m2 CLR
02:04 -16.6 °C -17.4 °C 34797.9 hPa Calm     89 % 0 mm 0.0 W/m2 CLR
02:05 -16.6 °C -17.4 °C 34797.9 hPa Calm     89 % 0 mm 0.0 W/m2 CLR
02:07 -16.8 °C -17.7 °C 34797.9 hPa Calm     89 % 0 mm 0.0 W/m2 CLR
02:12 -16.8 °C -17.7 °C 34797.9 hPa Calm     89 % 0 mm 0.0 W/m2 CLR
02:16 -16.6 °C -17.4 °C 34797.9 hPa Calm     89 % 0 mm 0.0 W/m2 CLR
02:17 -16.6 °C -17.4 °C 34797.9 hPa Calm     89 % 0 mm 0.0 W/m2 CLR
02:22 -16.6 °C -17.4 °C 34797.9 hPa Calm     89 % 0 mm 0.0 W/m2 CLR
02:24 -16.8 °C -17.7 °C 34797.9 hPa Calm     89 % 0 mm 0.0 W/m2 CLR
02:28 -16.8 °C -17.7 °C 34797.9 hPa Calm     89 % 0 mm 0.0 W/m2 CLR
02:33 -16.8 °C -17.7 °C 34797.9 hPa Calm     90 % 0 mm 0.0 W/m2 CLR
02:36 -16.8 °C -17.7 °C 34797.9 hPa Calm     89 % 0 mm 0.0 W/m2 CLR
02:41 -17.2 °C -18.1 °C 34784.4 hPa Calm     89 % 0 mm 0.0 W/m2 CLR
02:42 -16.8 °C -17.7 °C 34784.4 hPa Calm     89 % 0 mm 0.0 W/m2 CLR
02:43 -16.8 °C -17.7 °C 34797.9 hPa Calm     89 % 0 mm 0.0 W/m2 CLR
02:48 -17.2 °C -18.1 °C 34784.4 hPa Calm     89 % 0 mm 0.0 W/m2 CLR
02:53 -16.8 °C -17.7 °C 34784.4 hPa Calm     90 % 0 mm 0.0 W/m2 CLR
02:58 -16.8 °C -17.7 °C 34784.4 hPa Calm     90 % 0 mm 0.0 W/m2 CLR
02:59 -16.8 °C -17.7 °C 34784.4 hPa Calm     90 % 0 mm 0.0 W/m2 CLR
03:00 -16.8 °C -17.7 °C 34784.4 hPa Calm     90 % 0 mm 0.0 W/m2 CLR
03:04 -16.8 °C -17.7 °C 34784.4 hPa Calm     90 % 0 mm 0.0 W/m2 CLR
03:08 -16.8 °C -17.7 °C 34784.4 hPa Calm     90 % 0 mm 0.0 W/m2 CLR
03:11 -16.8 °C -17.7 °C 34784.4 hPa Calm     90 % 0 mm 0.0 W/m2 CLR
03:15 -16.8 °C -17.7 °C 34784.4 hPa Calm     90 % 0 mm 0.0 W/m2 CLR
03:18 -16.8 °C -17.7 °C 34784.4 hPa Calm     90 % 0 mm 0.0 W/m2 CLR
03:20 -16.8 °C -17.7 °C 34784.4 hPa Calm     90 % 0 mm 0.0 W/m2 CLR
03:23 -16.8 °C -17.7 °C 34784.4 hPa Calm     90 % 0 mm 0.0 W/m2 CLR
03:27 -16.8 °C -17.6 °C 34784.4 hPa Calm     91 % 0 mm 0.0 W/m2 CLR
03:29 -16.8 °C -17.6 °C 34784.4 hPa Calm     91 % 0 mm 0.0 W/m2 CLR
03:33 -16.8 °C -17.6 °C 34784.4 hPa Calm     91 % 0 mm 0.0 W/m2 CLR
03:35 -16.8 °C -17.6 °C 34784.4 hPa Calm     91 % 0 mm 0.0 W/m2 CLR
03:39 -16.8 °C -17.7 °C 34784.4 hPa Calm     90 % 0 mm 0.0 W/m2 CLR
03:42 -17.2 °C -17.9 °C 34784.4 hPa Calm     90 % 0 mm 0.0 W/m2 CLR
03:47 -17.2 °C -17.9 °C 34774.2 hPa Calm     90 % 0 mm 0.0 W/m2 CLR
03:48 -17.2 °C -17.9 °C 34774.2 hPa Calm     90 % 0 mm 0.0 W/m2 CLR
03:53 -17.2 °C -17.9 °C 34774.2 hPa Calm     90 % 0 mm 0.0 W/m2 CLR
03:54 -17.2 °C -17.9 °C 34774.2 hPa Calm     90 % 0 mm 0.0 W/m2 CLR
03:59 -17.2 °C -17.9 °C 34774.2 hPa Calm     90 % 0 mm 0.0 W/m2 CLR
04:00 -17.2 °C -17.9 °C 34774.2 hPa Calm     90 % 0 mm 0.0 W/m2 CLR
04:05 -17.2 °C -17.9 °C 34774.2 hPa Calm     90 % 0 mm 0.0 W/m2 CLR
04:07 -17.2 °C -17.9 °C 34774.2 hPa Calm     90 % 0 mm 0.0 W/m2 CLR
04:11 -17.2 °C -17.9 °C 34774.2 hPa Calm     91 % 0 mm 0.0 W/m2 CLR
04:16 -17.2 °C -17.9 °C 34774.2 hPa Calm     90 % 0 mm 0.0 W/m2 CLR
04:20 -17.2 °C -17.9 °C 34774.2 hPa Calm     90 % 0 mm 0.0 W/m2 CLR
04:25 -17.2 °C -17.9 °C 34774.2 hPa Calm     90 % 0 mm 0.0 W/m2 CLR
04:29 -17.2 °C -17.9 °C 34774.2 hPa Calm     90 % 0 mm 0.0 W/m2 CLR
04:30 -17.4 °C -18.3 °C 34774.2 hPa Calm     90 % 0 mm 0.0 W/m2 CLR
04:35 -17.4 °C -18.2 °C 34760.7 hPa Calm     91 % 0 mm 0.0 W/m2 CLR
04:36 -17.4 °C -18.2 °C 34760.7 hPa Calm     91 % 0 mm 0.0 W/m2 CLR
04:41 -17.2 °C -17.9 °C 34760.7 hPa Calm     91 % 0 mm 0.0 W/m2 CLR
04:42 -17.2 °C -17.9 °C 34760.7 hPa Calm     91 % 0 mm 0.0 W/m2 CLR
04:47 -17.4 °C -18.2 °C 34760.7 hPa Calm     91 % 0 mm 0.0 W/m2 CLR
04:49 -17.2 °C -17.9 °C 34760.7 hPa Calm     91 % 0 mm 0.0 W/m2 CLR
04:50 -17.2 °C -17.9 °C 34760.7 hPa Calm     91 % 0 mm 0.0 W/m2 CLR
04:55 -17.2 °C -17.9 °C 34760.7 hPa Calm     91 % 0 mm 0.0 W/m2 CLR
05:00 -17.2 °C -17.9 °C 34760.7 hPa Calm     91 % 0 mm 0.0 W/m2 CLR
05:01 -17.4 °C -18.2 °C 34760.7 hPa Calm     91 % 0 mm 0.0 W/m2 CLR
05:06 -17.4 °C -18.3 °C 34760.7 hPa Calm     90 % 0 mm 0.0 W/m2 CLR
05:07 -17.4 °C -18.3 °C 34760.7 hPa Calm     90 % 0 mm 0.0 W/m2 CLR
05:12 -17.4 °C -18.2 °C 34760.7 hPa Calm     91 % 0 mm 0.0 W/m2 CLR
05:13 -17.4 °C -18.2 °C 34760.7 hPa Calm     91 % 0 mm 0.0 W/m2 CLR
05:16 -17.8 °C -18.5 °C 34750.5 hPa Calm     91 % 0 mm 0.0 W/m2 CLR
05:18 -17.4 °C -18.2 °C 34750.5 hPa Calm     91 % 0 mm 0.0 W/m2 CLR
05:23 -17.4 °C -18.2 °C 34750.5 hPa Calm     91 % 0 mm 0.0 W/m2 CLR
05:28 -17.4 °C -18.2 °C 34750.5 hPa Calm     91 % 0 mm 0.0 W/m2 CLR
05:31 -17.4 °C -18.2 °C 34750.5 hPa Calm     91 % 0 mm 0.0 W/m2 CLR
05:34 -17.4 °C -18.2 °C 34750.5 hPa Calm     91 % 0 mm 0.0 W/m2 CLR
05:36 -17.4 °C -18.2 °C 34750.5 hPa Calm     91 % 0 mm 0.0 W/m2 CLR
05:41 -17.4 °C -18.2 °C 34750.5 hPa Calm     91 % 0 mm 0.0 W/m2 CLR
05:44 -17.4 °C -18.2 °C 34750.5 hPa Calm     91 % 0 mm 0.0 W/m2 CLR
05:47 -17.4 °C -18.2 °C 34750.5 hPa Calm     91 % 0 mm 0.0 W/m2 CLR
05:50 -17.4 °C -18.2 °C 34750.5 hPa Calm     91 % 0 mm 0.0 W/m2 CLR
05:52 -17.8 °C -18.5 °C 34750.5 hPa Calm     91 % 0 mm 0.0 W/m2 CLR
05:55 -17.4 °C -18.2 °C 34750.5 hPa Calm     91 % 0 mm 0.0 W/m2 CLR
05:58 -17.4 °C -18.2 °C 34750.5 hPa Calm     91 % 0 mm 0.0 W/m2 CLR
06:02 -17.8 °C -18.5 °C 34750.5 hPa Calm     91 % 0 mm 0.0 W/m2 CLR
06:03 -17.8 °C -18.5 °C 34750.5 hPa Calm     91 % 0 mm 0.0 W/m2 CLR
06:08 -17.8 °C -18.5 °C 34750.5 hPa Calm     91 % 0 mm 0.0 W/m2 CLR
06:09 -17.8 °C -18.5 °C 34750.5 hPa Calm     91 % 0 mm 0.0 W/m2 CLR
06:10 -17.8 °C -18.5 °C 34750.5 hPa Calm     91 % 0 mm 0.0 W/m2 CLR
06:15 -17.8 °C -18.5 °C 34740.4 hPa Calm     91 % 0 mm 0.0 W/m2 CLR
06:16 -17.8 °C -18.5 °C 34740.4 hPa Calm     91 % 0 mm 0.0 W/m2 CLR
06:19 -17.8 °C -18.5 °C 34740.4 hPa Calm     91 % 0 mm 0.0 W/m2 CLR
06:21 -17.8 °C -18.5 °C 34740.4 hPa Calm     91 % 0 mm 0.0 W/m2 CLR
06:25 -17.8 °C -18.4 °C 34740.4 hPa Calm     92 % 0 mm 0.0 W/m2 CLR
06:26 -17.8 °C -18.4 °C 34740.4 hPa Calm     92 % 0 mm 0.0 W/m2 CLR
06:31 -17.8 °C -18.5 °C 34740.4 hPa Calm     91 % 0 mm 0.0 W/m2 CLR
06:32 -17.8 °C -18.5 °C 34740.4 hPa Calm     91 % 0 mm 0.0 W/m2 CLR
06:37 -17.8 °C -18.4 °C 34726.8 hPa Calm     92 % 0 mm 0.0 W/m2 CLR
06:42 -17.8 °C -18.4 °C 34726.8 hPa Calm     92 % 0 mm 0.0 W/m2 CLR
06:43 -17.8 °C -18.4 °C 34726.8 hPa Calm     92 % 0 mm 0.0 W/m2 CLR
06:48 -17.8 °C -18.5 °C 34726.8 hPa Calm     91 % 0 mm 0.0 W/m2 CLR
06:49 -17.8 °C -18.5 °C 34726.8 hPa Calm     91 % 0 mm 0.0 W/m2 CLR
06:54 -17.8 °C -18.5 °C 34716.7 hPa Calm     91 % 0 mm 0.0 W/m2 CLR
06:55 -17.8 °C -18.5 °C 34716.7 hPa Calm     91 % 0 mm 0.0 W/m2 CLR
06:56 -17.8 °C -18.5 °C 34716.7 hPa Calm     91 % 0 mm 0.0 W/m2 CLR
07:00 -17.8 °C -18.5 °C 34716.7 hPa Calm     91 % 0 mm 0.0 W/m2 CLR
07:02 -17.8 °C -18.5 °C 34716.7 hPa Calm     91 % 0 mm 0.0 W/m2 CLR
07:05 -17.4 °C -18.2 °C 34716.7 hPa Calm     91 % 0 mm 0.0 W/m2 CLR
07:07 -17.4 °C -18.2 °C 34716.7 hPa Calm     91 % 0 mm 0.0 W/m2 CLR
07:10 -17.4 °C -18.2 °C 34716.7 hPa Calm     91 % 0 mm 0.0 W/m2 CLR
07:15 -17.8 °C -18.5 °C 34726.8 hPa Calm     91 % 0 mm 0.0 W/m2 CLR
07:20 -17.8 °C -18.5 °C 34716.7 hPa Calm     91 % 0 mm 0.0 W/m2 CLR
07:21 -17.4 °C -18.2 °C 34716.7 hPa Calm     91 % 0 mm 0.0 W/m2 CLR
07:26 -17.4 °C -18.2 °C 34716.7 hPa Calm     91 % 0 mm 0.0 W/m2 CLR
07:28 -17.4 °C -18.1 °C 34716.7 hPa Calm     92 % 0 mm 0.0 W/m2 CLR
07:33 -17.8 °C -18.4 °C 34703.1 hPa Calm     92 % 0 mm 0.0 W/m2 CLR
07:34 -17.8 °C -18.4 °C 34703.1 hPa Calm     92 % 0 mm 0.0 W/m2 CLR
07:38 -17.4 °C -18.1 °C 34703.1 hPa Calm     92 % 0 mm 0.0 W/m2 CLR
07:44 -17.4 °C -18.1 °C 34703.1 hPa Calm     92 % 0 mm 0.0 W/m2 CLR
07:46 -17.8 °C -18.4 °C 34703.1 hPa Calm     92 % 0 mm 0.0 W/m2 CLR
07:50 -17.8 °C -18.4 °C 34703.1 hPa Calm     92 % 0 mm 0.0 W/m2 CLR
07:55 -17.4 °C -18.1 °C 34703.1 hPa Calm     92 % 0 mm 0.0 W/m2 CLR
08:00 -17.4 °C -18.1 °C 34703.1 hPa Calm     92 % 0 mm 0.0 W/m2 CLR
08:02 -17.4 °C -18.1 °C 34703.1 hPa Calm     92 % 0 mm 0.0 W/m2 CLR
08:06 -17.4 °C -18.1 °C 34703.1 hPa Calm     92 % 0 mm 0.0 W/m2 CLR
08:07 -17.4 °C -18.2 °C 34703.1 hPa Calm     91 % 0 mm 0.0 W/m2 CLR
08:12 -17.4 °C -18.1 °C 34703.1 hPa Calm     92 % 0 mm 5.0 W/m2 CLR
08:13 -17.4 °C -18.1 °C 34703.1 hPa Calm     92 % 0 mm 5.0 W/m2 CLR
08:18 -17.4 °C -18.1 °C 34703.1 hPa Calm     92 % 0 mm 5.0 W/m2 OVC
08:23 -17.4 °C -18.1 °C 34703.1 hPa Calm     92 % 0 mm 0.0 W/m2 OVC
08:28 -17.4 °C -18.1 °C 34703.1 hPa Calm     92 % 0 mm 0.0 W/m2 OVC
08:33 -17.4 °C -18.1 °C 34703.1 hPa Calm     92 % 0 mm 5.0 W/m2 OVC
08:34 -17.4 °C -18.1 °C 34703.1 hPa Calm     92 % 0 mm 5.0 W/m2 OVC
08:38 -17.4 °C -18.1 °C 34716.7 hPa Calm     92 % 0 mm 7.0 W/m2 OVC
08:39 -17.4 °C -18.1 °C 34716.7 hPa Calm     92 % 0 mm 7.0 W/m2 BKN
08:44 -17.4 °C -18.1 °C 34716.7 hPa Calm     92 % 0 mm 9.0 W/m2 BKN
08:49 -17.4 °C -18.1 °C 34703.1 hPa Calm     92 % 0 mm 16.0 W/m2 BKN
08:50 -17.4 °C -18.1 °C 34703.1 hPa Calm     92 % 0 mm 16.0 W/m2 BKN
08:55 -17.4 °C -18.1 °C 34703.1 hPa Calm     92 % 0 mm 25.0 W/m2 BKN
08:57 -17.4 °C -18.1 °C 34703.1 hPa Calm     92 % 0 mm 26.0 W/m2 BKN
09:01 -17.4 °C -18.1 °C 34716.7 hPa Calm     92 % 0 mm 33.0 W/m2 BKN
09:05 -17.2 °C -17.8 °C 34716.7 hPa Calm     92 % 0 mm 39.0 W/m2 BKN
09:10 -17.2 °C -17.8 °C 34716.7 hPa Calm     92 % 0 mm 42.0 W/m2 BKN
09:15 -17.2 °C -17.8 °C 34716.7 hPa Calm     92 % 0 mm 47.0 W/m2 SCT
09:20 -17.2 °C -17.8 °C 34716.7 hPa Calm     92 % 0 mm 54.0 W/m2 SCT
09:22 -17.2 °C -17.8 °C 34716.7 hPa Calm     92 % 0 mm 56.0 W/m2 SCT
09:27 -17.2 °C -17.8 °C 34726.8 hPa Calm     92 % 0 mm 62.0 W/m2 SCT
09:28 -17.2 °C -17.8 °C 34726.8 hPa Calm     92 % 0 mm 65.0 W/m2 SCT
09:30 -17.2 °C -17.8 °C 34726.8 hPa Calm     92 % 0 mm 67.0 W/m2 SCT
09:35 -17.2 °C -17.8 °C 34740.4 hPa Calm     92 % 0 mm 70.0 W/m2 SCT
09:38 -16.8 °C -17.5 °C 34740.4 hPa Calm     92 % 0 mm 76.0 W/m2 FEW
09:42 -16.8 °C -17.5 °C 34740.4 hPa Calm     92 % 0 mm 95.0 W/m2 FEW
09:44 -16.8 °C -17.5 °C 34740.4 hPa Calm     92 % 0 mm 91.0 W/m2 FEW
09:48 -16.8 °C -17.5 °C 34740.4 hPa Calm     92 % 0 mm 95.0 W/m2 CLR
09:52 -16.8 °C -17.5 °C 34740.4 hPa Calm     92 % 0 mm 93.0 W/m2 CLR
09:57 -16.6 °C -17.2 °C 34740.4 hPa Calm     92 % 0 mm 88.0 W/m2 CLR
09:58 -16.6 °C -17.2 °C 34740.4 hPa Calm     92 % 0 mm 95.0 W/m2 CLR
10:03 -16.6 °C -17.2 °C 34740.4 hPa Calm     92 % 0 mm 109.0 W/m2 CLR
10:04 -16.6 °C -17.2 °C 34740.4 hPa Calm     92 % 0 mm 116.0 W/m2 CLR
10:09 -16.2 °C -16.9 °C 34740.4 hPa Calm     92 % 0 mm 121.0 W/m2 CLR
10:14 -16.2 °C -16.9 °C 34740.4 hPa Calm     92 % 0 mm 128.0 W/m2 CLR
10:19 -15.9 °C -16.6 °C 34740.4 hPa Calm     92 % 0 mm 121.0 W/m2 CLR
10:24 -15.9 °C -16.6 °C 34740.4 hPa Calm     92 % 0 mm 120.0 W/m2 CLR
10:26 -15.9 °C -16.6 °C 34740.4 hPa Calm     92 % 0 mm 128.0 W/m2 CLR
10:27 -15.9 °C -16.6 °C 34750.5 hPa Calm     92 % 0 mm 135.0 W/m2 CLR
10:31 -15.6 °C -16.3 °C 34750.5 hPa Calm     92 % 0 mm 239.0 W/m2 CLR
10:36 -15.6 °C -16.3 °C 34750.5 hPa Calm     92 % 0 mm 297.0 W/m2 CLR
10:38 -15.6 °C -16.3 °C 34750.5 hPa Calm     92 % 0 mm 367.0 W/m2 CLR
10:43 -15.3 °C -15.9 °C 34750.5 hPa Calm     92 % 0 mm 292.0 W/m2 CLR
10:45 -15.3 °C -15.9 °C 34750.5 hPa Calm     92 % 0 mm 341.0 W/m2 CLR
10:48 -15 °C -15.7 °C 34750.5 hPa Calm     92 % 0 mm 227.0 W/m2 CLR
10:52 -15 °C -15.7 °C 34740.4 hPa Calm     92 % 0 mm 169.0 W/m2 CLR
10:57 -14.7 °C -15.4 °C 34750.5 hPa Calm     91 % 0 mm 149.0 W/m2 CLR
11:02 -14.7 °C -15.5 °C 34750.5 hPa Calm     90 % 0 mm 190.0 W/m2 CLR
11:07 -14.4 °C -15.2 °C 34750.5 hPa Calm     90 % 0 mm 186.0 W/m2 CLR
11:08 -14.4 °C -15.2 °C 34750.5 hPa Calm     90 % 0 mm 190.0 W/m2 CLR
11:14 -14.4 °C -15.2 °C 34740.4 hPa Calm     90 % 0 mm 200.0 W/m2 CLR
11:15 -14.1 °C -15 °C 34740.4 hPa Calm     89 % 0 mm 202.0 W/m2 CLR
11:18 -14.1 °C -15 °C 34740.4 hPa Calm     89 % 0 mm 206.0 W/m2 CLR
11:21 -14.1 °C -15.1 °C 34740.4 hPa Calm     88 % 0 mm 209.0 W/m2 CLR
11:23 -13.8 °C -14.8 °C 34740.4 hPa Calm     88 % 0 mm 211.0 W/m2 CLR
11:27 -13.4 °C -14.5 °C 34740.4 hPa Calm     88 % 0 mm 236.0 W/m2 CLR
11:32 -13.4 °C -14.6 °C 34726.8 hPa Calm     87 % 0 mm 253.0 W/m2 CLR
11:33 -13.4 °C -14.6 °C 34726.8 hPa Calm     87 % 0 mm 253.0 W/m2 CLR
11:38 -13.2 °C -14.4 °C 34740.4 hPa Calm     86 % 0 mm 234.0 W/m2 CLR
11:39 -13.2 °C -14.4 °C 34726.8 hPa Calm     86 % 0 mm 227.0 W/m2 CLR
11:43 -13.2 °C -14.4 °C 34726.8 hPa Calm     86 % 0 mm 214.0 W/m2 CLR
11:48 -13.2 °C -14.5 °C 34726.8 hPa Calm     85 % 0 mm 195.0 W/m2 CLR
11:49 -12.8 °C -14.2 °C 34726.8 hPa Calm     85 % 0 mm 195.0 W/m2 CLR
11:54 -12.8 °C -14.3 °C 34716.7 hPa Calm     84 % 0 mm 211.0 W/m2 CLR
11:57 -12.8 °C -14.3 °C 34716.7 hPa Calm     83 % 0 mm 216.0 W/m2 CLR
12:01 -12.6 °C -14.2 °C 34703.1 hPa Calm     82 % 0 mm 206.0 W/m2 CLR
12:06 -12.6 °C -14.2 °C 34703.1 hPa Calm     82 % 0 mm 206.0 W/m2 CLR
12:07 -12.2 °C -13.8 °C 34703.1 hPa Calm     82 % 0 mm 200.0 W/m2 CLR
12:08 -12.2 °C -13.8 °C 34703.1 hPa Calm     82 % 0 mm 200.0 W/m2 CLR
12:13 -12.2 °C -13.9 °C 34703.1 hPa Calm     81 % 0 mm 193.0 W/m2 CLR
12:14 -11.9 °C -13.7 °C 34703.1 hPa Calm     81 % 0 mm 199.0 W/m2 CLR
12:19 -11.9 °C -13.8 °C 34703.1 hPa Calm     80 % 0 mm 234.0 W/m2 CLR
12:20 -11.9 °C -13.8 °C 34693 hPa Calm     80 % 0 mm 239.0 W/m2 CLR
12:25 -11.6 °C -13.6 °C 34693 hPa Calm     79 % 0 mm 272.0 W/m2 CLR
12:28 -11.6 °C -13.6 °C 34682.8 hPa Calm     79 % 0 mm 323.0 W/m2 CLR
12:32 -11.6 °C -13.7 °C 34682.8 hPa Calm     78 % 0 mm 309.0 W/m2 CLR
12:35 -11.3 °C -13.4 °C 34682.8 hPa Calm     78 % 0 mm 246.0 W/m2 CLR
12:40 -11.3 °C -13.4 °C 34682.8 hPa Calm     77 % 0 mm 550.0 W/m2 CLR
12:41 -11.3 °C -13.4 °C 34682.8 hPa Calm     77 % 0 mm 550.0 W/m2 CLR
12:43 -11.3 °C -13.4 °C 34682.8 hPa Calm     77 % 0 mm 550.0 W/m2 CLR
12:48 -11.3 °C -13.7 °C 34669.3 hPa Calm     75 % 0 mm 299.0 W/m2 CLR
12:53 -11 °C -13.5 °C 34659.1 hPa Calm     74 % 0 mm 281.0 W/m2 CLR
12:54 -11 °C -13.5 °C 34659.1 hPa Calm     74 % 0 mm 281.0 W/m2 CLR
12:59 -10.7 °C -13.3 °C 34659.1 hPa Calm     73 % 0 mm 283.0 W/m2 CLR
13:03 -10.7 °C -13.3 °C 34659.1 hPa Calm     73 % 0 mm 274.0 W/m2 CLR
13:05 -10.7 °C -13.3 °C 34659.1 hPa Calm     73 % 0 mm 258.0 W/m2 CLR
13:10 -10.7 °C -13.4 °C 34659.1 hPa Calm     72 % 0 mm 246.0 W/m2 CLR
13:11 -10.7 °C -13.5 °C 34659.1 hPa Calm     71 % 0 mm 246.0 W/m2 CLR
13:12 -10.7 °C -13.5 °C 34659.1 hPa Calm     71 % 0 mm 271.0 W/m2 CLR
13:17 -10.7 °C -13.5 °C 34645.6 hPa Calm     71 % 0 mm 214.0 W/m2 CLR
13:21 -10.4 °C -13.2 °C 34645.6 hPa Calm     71 % 0 mm 230.0 W/m2 CLR
13:22 -10.4 °C -13.3 °C 34645.6 hPa Calm     70 % 0 mm 223.0 W/m2 CLR
13:27 -10.4 °C -13.3 °C 34645.6 hPa Calm     70 % 0 mm 197.0 W/m2 CLR
13:32 -10.7 °C -13.8 °C 34635.4 hPa Calm     69 % 0 mm 207.0 W/m2 CLR
13:35 -10.4 °C -13.6 °C 34635.4 hPa Calm     68 % 0 mm 227.0 W/m2 CLR
13:39 -10.4 °C -13.6 °C 34635.4 hPa Calm     68 % 0 mm 236.0 W/m2 CLR
13:41 -10.4 °C -13.6 °C 34635.4 hPa Calm     68 % 0 mm 243.0 W/m2 CLR
13:46 -10.4 °C -13.6 °C 34635.4 hPa Calm     68 % 0 mm 265.0 W/m2 CLR
13:47 -10.4 °C -13.4 °C 34635.4 hPa Calm     69 % 0 mm 250.0 W/m2 CLR
13:52 -10.4 °C -13.6 °C 34635.4 hPa NE 9 km/h 9 km/h 68 % 0 mm 234.0 W/m2 CLR
13:56 -10.4 °C -13.6 °C 34625.2 hPa Calm     68 % 0 mm 218.0 W/m2 CLR
13:58 -10.4 °C -13.6 °C 34625.2 hPa Calm     68 % 0 mm 227.0 W/m2 CLR
14:02 -10.4 °C -13.7 °C 34625.2 hPa Calm     67 % 0 mm 225.0 W/m2 CLR
14:07 -10.4 °C -13.6 °C 34625.2 hPa ENE 9 km/h 9 km/h 68 % 0 mm 234.0 W/m2 CLR
14:08 -10.4 °C -13.6 °C 34625.2 hPa East 9 km/h 9 km/h 68 % 0 mm 229.0 W/m2 CLR
14:13 -10.4 °C -13.4 °C 34625.2 hPa Calm     69 % 0 mm 223.0 W/m2 CLR
14:14 -10.4 °C -13.6 °C 34625.2 hPa Calm     68 % 0 mm 218.0 W/m2 CLR
14:19 -10.4 °C -13.6 °C 34625.2 hPa ENE 6 km/h 6 km/h 68 % 0 mm 206.0 W/m2 CLR
14:24 -10.4 °C -13.6 °C 34611.7 hPa Calm     68 % 0 mm 209.0 W/m2 CLR
14:25 -10.4 °C -13.6 °C 34611.7 hPa Calm     68 % 0 mm 202.0 W/m2 CLR
14:30 -10.7 °C -13.8 °C 34625.2 hPa Calm     69 % 0 mm 192.0 W/m2 CLR
14:32 -10.7 °C -13.8 °C 34625.2 hPa Calm     69 % 0 mm 190.0 W/m2 CLR
14:37 -10.7 °C -13.8 °C 34611.7 hPa East 2.6 km/h   69 % 0 mm 172.0 W/m2 CLR
14:38 -10.7 °C -13.7 °C 34611.7 hPa East 9 km/h 9 km/h 70 % 0 mm 169.0 W/m2 CLR
14:43 -10.7 °C -13.7 °C 34611.7 hPa Calm     70 % 0 mm 158.0 W/m2 CLR
14:44 -10.7 °C -13.7 °C 34611.7 hPa Calm     70 % 0 mm 158.0 W/m2 CLR
14:45 -10.7 °C -13.7 °C 34611.7 hPa Calm     70 % 0 mm 158.0 W/m2 CLR
14:50 -10.7 °C -13.7 °C 34611.7 hPa Calm     70 % 0 mm 156.0 W/m2 CLR
14:52 -10.7 °C -13.7 °C 34611.7 hPa Calm     70 % 0 mm 156.0 W/m2 CLR
14:54 -10.7 °C -13.5 °C 34601.5 hPa Calm     71 % 0 mm 156.0 W/m2 CLR
14:59 -10.7 °C -13.5 °C 34601.5 hPa Calm     71 % 0 mm 151.0 W/m2 CLR
15:03 -10.7 °C -13.5 °C 34601.5 hPa Calm     71 % 0 mm 134.0 W/m2 CLR
15:06 -10.7 °C -13.5 °C 34601.5 hPa Calm     71 % 0 mm 127.0 W/m2 CLR
15:09 -10.7 °C -13.5 °C 34601.5 hPa Calm     71 % 0 mm 111.0 W/m2 CLR
15:11 -10.7 °C -13.5 °C 34601.5 hPa Calm     71 % 0 mm 102.0 W/m2 CLR
15:16 -10.7 °C -13.5 °C 34601.5 hPa Calm     71 % 0 mm 90.0 W/m2 CLR
15:18 -10.7 °C -13.5 °C 34601.5 hPa Calm     71 % 0 mm 84.0 W/m2 CLR
15:19 -10.7 °C -13.5 °C 34601.5 hPa Calm     71 % 0 mm 83.0 W/m2 CLR
15:24 -10.7 °C -13.5 °C 34601.5 hPa Calm     71 % 0 mm 77.0 W/m2 CLR
15:29 -10.7 °C -13.5 °C 34601.5 hPa Calm     71 % 0 mm 79.0 W/m2 FEW
15:30 -10.7 °C -13.5 °C 34601.5 hPa Calm     71 % 0 mm 81.0 W/m2 FEW
15:34 -11 °C -13.8 °C 34601.5 hPa Calm     71 % 0 mm 81.0 W/m2 FEW
15:35 -11 °C -13.8 °C 34601.5 hPa Calm     71 % 0 mm 81.0 W/m2 FEW
15:40 -11 °C -13.9 °C 34601.5 hPa Calm     70 % 0 mm 81.0 W/m2 FEW
15:45 -11 °C -13.9 °C 34601.5 hPa Calm     70 % 0 mm 77.0 W/m2 FEW
15:46 -11 °C -13.9 °C 34601.5 hPa Calm     70 % 0 mm 77.0 W/m2 FEW
15:48 -11 °C -13.9 °C 34601.5 hPa Calm     70 % 0 mm 79.0 W/m2 FEW
15:52 -11 °C -13.8 °C 34591.4 hPa Calm     71 % 0 mm 84.0 W/m2 FEW
15:57 -11 °C -13.8 °C 34591.4 hPa Calm     71 % 0 mm 90.0 W/m2 FEW
15:58 -11 °C -13.8 °C 34591.4 hPa Calm     71 % 0 mm 90.0 W/m2 FEW
16:02 -11 °C -13.8 °C 34601.5 hPa Calm     71 % 0 mm 93.0 W/m2 CLR
16:07 -11 °C -13.8 °C 34601.5 hPa Calm     71 % 0 mm 93.0 W/m2 CLR
16:09 -11 °C -13.8 °C 34591.4 hPa Calm     71 % 0 mm 93.0 W/m2 CLR
16:14 -11 °C -13.8 °C 34601.5 hPa Calm     71 % 0 mm 95.0 W/m2 CLR
16:15 -11 °C -13.8 °C 34601.5 hPa Calm     71 % 0 mm 91.0 W/m2 CLR
16:19 -11 °C -13.7 °C 34591.4 hPa Calm     72 % 0 mm 95.0 W/m2 CLR
16:20 -11 °C -13.7 °C 34591.4 hPa Calm     72 % 0 mm 107.0 W/m2 CLR
16:25 -11.3 °C -14.1 °C 34601.5 hPa Calm     71 % 0 mm 86.0 W/m2 CLR
16:27 -11.3 °C -14.1 °C 34601.5 hPa Calm     71 % 0 mm 83.0 W/m2 CLR
16:32 -11.3 °C -14.1 °C 34601.5 hPa Calm     71 % 0 mm 88.0 W/m2 CLR
16:37 -11.3 °C -14 °C 34601.5 hPa Calm     72 % 0 mm 84.0 W/m2 CLR
16:38 -11.3 °C -14 °C 34601.5 hPa Calm     72 % 0 mm 83.0 W/m2 CLR
16:43 -11.3 °C -14 °C 34601.5 hPa Calm     72 % 0 mm 76.0 W/m2 FEW
16:45 -11.3 °C -14.1 °C 34601.5 hPa Calm     71 % 0 mm 76.0 W/m2 FEW
16:50 -11.3 °C -14 °C 34601.5 hPa Calm     72 % 0 mm 90.0 W/m2 CLR
16:51 -11.3 °C -14 °C 34601.5 hPa Calm     72 % 0 mm 86.0 W/m2 CLR
16:55 -11.3 °C -14.1 °C 34601.5 hPa Calm     71 % 0 mm 54.0 W/m2 SCT
16:57 -11.3 °C -14.1 °C 34601.5 hPa Calm     71 % 0 mm 49.0 W/m2 SCT
17:02 -11.6 °C -14.6 °C 34601.5 hPa Calm     70 % 0 mm 37.0 W/m2 BKN
17:03 -11.6 °C -14.6 °C 34601.5 hPa Calm     70 % 0 mm 30.0 W/m2 BKN
17:09 -11.6 °C -14.4 °C 34601.5 hPa Calm     71 % 0 mm 26.0 W/m2 BKN
17:14 -11.9 °C -14.7 °C 34601.5 hPa Calm     71 % 0 mm 26.0 W/m2 BKN
17:17 -11.9 °C -14.7 °C 34601.5 hPa Calm     71 % 0 mm 25.0 W/m2 BKN
17:22 -11.9 °C -14.6 °C 34601.5 hPa Calm     72 % 0 mm 23.0 W/m2 BKN
17:26 -12.2 °C -14.8 °C 34601.5 hPa Calm     73 % 0 mm 21.0 W/m2 BKN
17:27 -12.2 °C -14.8 °C 34601.5 hPa Calm     73 % 0 mm 19.0 W/m2 BKN
17:31 -12.6 °C -15.2 °C 34601.5 hPa Calm     72 % 0 mm 14.0 W/m2 BKN
17:32 -12.6 °C -15.2 °C 34601.5 hPa Calm     72 % 0 mm 14.0 W/m2 BKN
17:36 -12.6 °C -15.3 °C 34591.4 hPa Calm     71 % 0 mm 7.0 W/m2 BKN
17:38 -12.8 °C -15.6 °C 34601.5 hPa Calm     71 % 0 mm 5.0 W/m2 OVC
17:41 -12.8 °C -15.7 °C 34591.4 hPa Calm     70 % 0 mm 5.0 W/m2 OVC
17:44 -12.8 °C -15.7 °C 34591.4 hPa Calm     70 % 0 mm 0.0 W/m2 OVC
17:46 -12.8 °C -15.7 °C 34601.5 hPa Calm     70 % 0 mm 0.0 W/m2 OVC
17:50 -12.8 °C -15.7 °C 34601.5 hPa Calm     70 % 0 mm 0.0 W/m2 OVC
17:55 -13.2 °C -16 °C 34601.5 hPa Calm     70 % 0 mm 0.0 W/m2 CLR
18:00 -13.2 °C -16 °C 34601.5 hPa Calm     70 % 0 mm 0.0 W/m2 CLR
18:01 -13.2 °C -15.9 °C 34601.5 hPa Calm     71 % 0 mm 0.0 W/m2 CLR
18:06 -13.2 °C -16.1 °C 34601.5 hPa Calm     69 % 0 mm 0.0 W/m2 CLR
18:11 -13.2 °C -16 °C 34611.7 hPa Calm     70 % 0 mm 0.0 W/m2 CLR
18:14 -13.2 °C -16 °C 34611.7 hPa Calm     70 % 0 mm 0.0 W/m2 CLR
18:18 -13.2 °C -16.1 °C 34611.7 hPa Calm     69 % 0 mm 0.0 W/m2 CLR
18:20 -13.2 °C -16.1 °C 34611.7 hPa Calm     69 % 0 mm 0.0 W/m2 CLR
18:24 -13.4 °C -16.4 °C 34611.7 hPa NNW 6 km/h 6 km/h 69 % 0 mm 0.0 W/m2 CLR
18:27 -13.4 °C -16.4 °C 34611.7 hPa NNW 6 km/h 6 km/h 69 % 0 mm 0.0 W/m2 CLR
18:31 -13.8 °C -16.7 °C 34601.5 hPa NNW 10.3 km/h 10.3 km/h 69 % 0 mm 0.0 W/m2 CLR
18:36 -14.1 °C -17.1 °C 34601.5 hPa NNW 9 km/h 9 km/h 68 % 0 mm 0.0 W/m2 CLR
18:40 -14.1 °C -17.1 °C 34601.5 hPa NNW 18.2 km/h 18.2 km/h 68 % 0 mm 0.0 W/m2 CLR
18:41 -14.1 °C -17.1 °C 34601.5 hPa NNW 17.9 km/h 17.9 km/h 68 % 0 mm 0.0 W/m2 CLR
18:46 -14.1 °C -17.6 °C 34601.5 hPa NNW 29.8 km/h 29.8 km/h 64 % 0 mm 0.0 W/m2 CLR
18:47 -13.8 °C -17.3 °C 34601.5 hPa NW 29.8 km/h 29.8 km/h 64 % 0 mm 0.0 W/m2 CLR
18:52 -13.4 °C -17.3 °C 34601.5 hPa NW 26.9 km/h 26.9 km/h 62 % 0 mm 0.0 W/m2 CLR
18:54 -13.2 °C -17.1 °C 34601.5 hPa NNW 17.9 km/h 17.9 km/h 61 % 0 mm 0.0 W/m2 CLR
19:00 -13.2 °C -17.2 °C 34611.7 hPa NNW 11.9 km/h 11.9 km/h 60 % 0 mm 0.0 W/m2 CLR
19:01 -12.8 °C -16.9 °C 34611.7 hPa NNW 11.9 km/h 11.9 km/h 60 % 0 mm 0.0 W/m2 CLR
19:05 -12.8 °C -16.9 °C 34601.5 hPa NW 9 km/h 9 km/h 60 % 0 mm 0.0 W/m2 CLR
19:10 -13.2 °C -17.1 °C 34601.5 hPa Calm     61 % 0 mm 0.0 W/m2 CLR
19:13 -13.2 °C -17.1 °C 34601.5 hPa Calm     61 % 0 mm 0.0 W/m2 CLR
19:18 -13.4 °C -17.4 °C 34601.5 hPa Calm     61 % 0 mm 0.0 W/m2 CLR
19:20 -13.4 °C -17.4 °C 34601.5 hPa Calm     61 % 0 mm 0.0 W/m2 CLR
19:23 -13.4 °C -17.4 °C 34601.5 hPa Calm     61 % 0 mm 0.0 W/m2 CLR
19:26 -13.8 °C -17.7 °C 34601.5 hPa Calm     61 % 0 mm 0.0 W/m2 CLR
19:28 -13.8 °C -17.7 °C 34601.5 hPa Calm     61 % 0 mm 0.0 W/m2 CLR
19:33 -13.8 °C -17.6 °C 34611.7 hPa Calm     62 % 0 mm 0.0 W/m2 CLR
19:35 -13.8 °C -17.6 °C 34611.7 hPa Calm     62 % 0 mm 0.0 W/m2 CLR
19:40 -13.8 °C -17.6 °C 34611.7 hPa NW 6 km/h 6 km/h 62 % 0 mm 0.0 W/m2 CLR
19:41 -13.8 °C -17.4 °C 34611.7 hPa NW 9 km/h 9 km/h 63 % 0 mm 0.0 W/m2 CLR
19:46 -13.8 °C -17.6 °C 34611.7 hPa NW 6 km/h 6 km/h 62 % 0 mm 0.0 W/m2 CLR
19:47 -13.4 °C -17.3 °C 34611.7 hPa NW 6 km/h 6 km/h 62 % 0 mm 0.0 W/m2 CLR
19:52 -13.4 °C -17.3 °C 34611.7 hPa NW 9 km/h 9 km/h 62 % 0 mm 0.0 W/m2 CLR
19:53 -13.4 °C -17.3 °C 34611.7 hPa NW 9 km/h 9 km/h 62 % 0 mm 0.0 W/m2 CLR
19:58 -13.4 °C -17.4 °C 34625.2 hPa NW 9 km/h 9 km/h 61 % 0 mm 0.0 W/m2 CLR
19:59 -13.4 °C -17.4 °C 34625.2 hPa NW 9 km/h 9 km/h 61 % 0 mm 0.0 W/m2 CLR
20:04 -13.4 °C -17.4 °C 34635.4 hPa NW 9 km/h 9 km/h 61 % 0 mm 0.0 W/m2 CLR
20:06 -13.2 °C -17 °C 34635.4 hPa NNW 9 km/h 9 km/h 62 % 0 mm 0.0 W/m2 CLR
20:10 -13.2 °C -17.1 °C 34635.4 hPa NNW 15 km/h 15 km/h 61 % 0 mm 0.0 W/m2 CLR
20:11 -13.2 °C -17.1 °C 34635.4 hPa NW 11.9 km/h 11.9 km/h 61 % 0 mm 0.0 W/m2 CLR
20:16 -12.8 °C -16.8 °C 34635.4 hPa NW 23.8 km/h 23.8 km/h 61 % 0 mm 0.0 W/m2 CLR
20:17 -12.8 °C -16.8 °C 34635.4 hPa NNW 17.9 km/h 17.9 km/h 61 % 0 mm 0.0 W/m2 CLR
20:18 -12.8 °C -16.8 °C 34635.4 hPa NW 29.8 km/h 29.8 km/h 61 % 0 mm 0.0 W/m2 CLR
20:23 -12.6 °C -16.6 °C 34635.4 hPa NW 23.8 km/h 23.8 km/h 60 % 0 mm 0.0 W/m2 CLR
20:26 -12.2 °C -16.3 °C 34635.4 hPa NW 20.9 km/h 20.9 km/h 60 % 0 mm 0.0 W/m2 CLR
20:31 -11.9 °C -16.1 °C 34635.4 hPa NW 20.8 km/h 20.8 km/h 60 % 0 mm 0.0 W/m2 CLR
20:32 -11.6 °C -15.9 °C 34635.4 hPa NW 23.8 km/h 23.8 km/h 59 % 0 mm 0.0 W/m2 CLR
20:36 -11.6 °C -15.8 °C 34625.2 hPa NW 38.8 km/h 38.8 km/h 60 % 0 mm 0.0 W/m2 CLR
20:38 -11.3 °C -15.4 °C 34625.2 hPa WNW 29.8 km/h 29.8 km/h 60 % 0 mm 0.0 W/m2 CLR
20:42 -11 °C -15.3 °C 34625.2 hPa WNW 36.2 km/h 36.2 km/h 59 % 0 mm 0.0 W/m2 CLR
20:47 -10.7 °C -15.1 °C 34625.2 hPa WNW 29.8 km/h 29.8 km/h 59 % 0 mm 0.0 W/m2 CLR
20:49 -10.7 °C -15.1 °C 34625.2 hPa West 29.8 km/h 29.8 km/h 59 % 0 mm 0.0 W/m2 CLR
20:54 -10.7 °C -15.1 °C 34625.2 hPa NW 35.7 km/h 35.7 km/h 59 % 0 mm 0.0 W/m2 CLR
20:59 -10.7 °C -14.9 °C 34645.6 hPa NNW 50.7 km/h 50.7 km/h 60 % 0 mm 0.0 W/m2 CLR
21:00 -11 °C -15.2 °C 34645.6 hPa WNW 50.7 km/h 50.7 km/h 60 % 0 mm 0.0 W/m2 CLR
21:05 -10.4 °C -14.6 °C 34659.1 hPa NW 50.7 km/h 50.7 km/h 60 % 0 mm 0.0 W/m2 CLR
21:06 -10.4 °C -14.6 °C 34659.1 hPa WNW 50.7 km/h 50.7 km/h 60 % 0 mm 0.0 W/m2 CLR
21:11 -10.4 °C -14.6 °C 34669.3 hPa NNW 59.5 km/h 59.5 km/h 60 % 0 mm 0.0 W/m2 CLR
21:15 -10.4 °C -14.6 °C 34669.3 hPa NNW 54.4 km/h 54.4 km/h 60 % 0 mm 0.0 W/m2 CLR
21:20 -10.4 °C -14.7 °C 34682.8 hPa NW 89.3 km/h 89.3 km/h 59 % 0 mm 0.0 W/m2
21:21 -10.4 °C -14.7 °C 34682.8 hPa NW 89.3 km/h 89.3 km/h 59 % 0 mm 0.0 W/m2
21:23 -10.4 °C -14.7 °C 34682.8 hPa NW 77.4 km/h 77.4 km/h 59 % 0 mm 0.0 W/m2 CLR
21:26 -10.7 °C -15.1 °C 34693 hPa North 85.5 km/h 85.5 km/h 59 % 0 mm 0.0 W/m2 CLR
21:31 -10.7 °C -15.1 °C 34703.1 hPa NW 71.5 km/h 71.5 km/h 59 % 0 mm 0.0 W/m2 CLR
21:36 -10.7 °C -14.6 °C 34703.1 hPa NW 101.2 km/h 101.2 km/h 62 % 0 mm 0.0 W/m2
21:37 -11 °C -14.8 °C 34703.1 hPa North 110.2 km/h 110.2 km/h 63 % 0 mm 0.0 W/m2
21:45 -11.3 °C -14.6 °C 34726.8 hPa NW 89.3 km/h 89.3 km/h 67 % 0 mm 0.0 W/m2 CLR
21:50 -11.6 °C -14.6 °C 34726.8 hPa North 85.5 km/h 85.5 km/h 70 % 0 mm 0.0 W/m2
21:51 -11.6 °C -14.6 °C 34726.8 hPa NNW 86.4 km/h 86.4 km/h 70 % 0 mm 0.0 W/m2
21:56 -11.9 °C -14.7 °C 34740.4 hPa North 80.5 km/h 80.5 km/h 71 % 0 mm 0.0 W/m2 CLR
21:58 -11.9 °C -14.7 °C 34750.5 hPa NNW 74.5 km/h 74.5 km/h 71 % 0 mm 0.0 W/m2 CLR
22:02 -11.9 °C -14.8 °C 34750.5 hPa NNW 92.4 km/h 92.4 km/h 70 % 0 mm 0.0 W/m2
22:03 -11.9 °C -14.8 °C 34750.5 hPa North 98.3 km/h 98.3 km/h 70 % 0 mm 0.0 W/m2
22:08 -11.9 °C -14.7 °C 34750.5 hPa NNW 68.6 km/h 68.6 km/h 71 % 0 mm 0.0 W/m2
22:11 -12.2 °C -15 °C 34760.7 hPa NNW 86.4 km/h 86.4 km/h 71 % 0 mm 0.0 W/m2 CLR
22:14 -12.2 °C -15 °C 34750.5 hPa North 80.5 km/h 80.5 km/h 71 % 0 mm 0.0 W/m2 CLR
22:17 -12.2 °C -15 °C 34760.7 hPa NNW 65.5 km/h 65.5 km/h 71 % 0 mm 0.0 W/m2 CLR
22:20 -12.2 °C -15 °C 34760.7 hPa North 92.4 km/h 92.4 km/h 71 % 0 mm 0.0 W/m2 CLR
22:24 -12.2 °C -14.9 °C 34760.7 hPa North 74.5 km/h 74.5 km/h 72 % 0 mm 0.0 W/m2 CLR
22:25 -12.2 °C -14.9 °C 34760.7 hPa North 75.2 km/h 75.2 km/h 72 % 0 mm 0.0 W/m2 CLR
22:30 -12.2 °C -15 °C 34760.7 hPa NNW 65.5 km/h 65.5 km/h 71 % 0 mm 0.0 W/m2 CLR
22:33 -12.2 °C -14.9 °C 34760.7 hPa NNW 77.4 km/h 77.4 km/h 72 % 0 mm 0.0 W/m2 CLR
22:36 -12.2 °C -14.9 °C 34760.7 hPa NW 68.6 km/h 68.6 km/h 72 % 0 mm 0.0 W/m2 CLR
22:41 -12.2 °C -14.9 °C 34774.2 hPa NW 44.7 km/h 44.7 km/h 72 % 0 mm 0.0 W/m2 CLR
22:43 -12.2 °C -14.9 °C 34774.2 hPa NNW 54.4 km/h 54.4 km/h 72 % 0 mm 0.0 W/m2 CLR
22:48 -12.2 °C -14.9 °C 34774.2 hPa NW 72.6 km/h 72.6 km/h 72 % 0 mm 0.0 W/m2 CLR
22:52 -12.6 °C -15.3 °C 34774.2 hPa NW 62.6 km/h 62.6 km/h 71 % 0 mm 0.0 W/m2 CLR
22:54 -12.6 °C -15.3 °C 34784.4 hPa North 53.6 km/h 53.6 km/h 71 % 0 mm 0.0 W/m2 CLR
22:58 -12.6 °C -15.3 °C 34784.4 hPa NNE 50.7 km/h 50.7 km/h 71 % 0 mm 0.0 W/m2 CLR
23:03 -12.6 °C -15.3 °C 34784.4 hPa NNW 68.6 km/h 68.6 km/h 71 % 0 mm 0.0 W/m2 CLR
23:04 -12.6 °C -15.3 °C 34784.4 hPa NW 68.6 km/h 68.6 km/h 71 % 0 mm 0.0 W/m2 CLR
23:07 -12.6 °C -15.3 °C 34784.4 hPa North 53.6 km/h 53.6 km/h 71 % 0 mm 0.0 W/m2 CLR
23:09 -12.6 °C -15.3 °C 34784.4 hPa NNW 44.7 km/h 44.7 km/h 71 % 0 mm 0.0 W/m2 CLR
23:13 -12.6 °C -15.3 °C 34797.9 hPa NW 53.6 km/h 53.6 km/h 71 % 0 mm 0.0 W/m2 CLR
23:15 -12.6 °C -15.3 °C 34797.9 hPa NNW 53.6 km/h 53.6 km/h 71 % 0 mm 0.0 W/m2 CLR
23:19 -12.6 °C -15.3 °C 34797.9 hPa North 51.8 km/h 51.8 km/h 71 % 0 mm 0.0 W/m2 CLR
23:21 -12.6 °C -15.3 °C 34797.9 hPa North 68.6 km/h 68.6 km/h 71 % 0 mm 0.0 W/m2 CLR
23:26 -12.6 °C -15.3 °C 34797.9 hPa North 36.2 km/h 36.2 km/h 71 % 0 mm 0.0 W/m2 CLR
23:29 -12.6 °C -15.3 °C 34797.9 hPa NNW 62.6 km/h 62.6 km/h 71 % 0 mm 0.0 W/m2 CLR
23:31 -12.6 °C -15.3 °C 34797.9 hPa NW 62.6 km/h 62.6 km/h 71 % 0 mm 0.0 W/m2 CLR
23:36 -12.8 °C -15.6 °C 34797.9 hPa NNW 50.7 km/h 50.7 km/h 71 % 0 mm 0.0 W/m2 CLR
23:41 -12.8 °C -15.5 °C 34797.9 hPa NW 53.6 km/h 53.6 km/h 72 % 0 mm 0.0 W/m2 CLR
23:44 -12.8 °C -15.5 °C 34797.9 hPa NW 59.5 km/h 59.5 km/h 72 % 0 mm 0.0 W/m2 CLR
23:46 -12.8 °C -15.5 °C 34808.1 hPa NW 47.6 km/h 47.6 km/h 72 % 0 mm 0.0 W/m2 CLR
23:51 -12.8 °C -15.5 °C 34808.1 hPa NNW 62.6 km/h 62.6 km/h 72 % 0 mm 0.0 W/m2 CLR
23:52 -13.2 °C -15.8 °C 34808.1 hPa NNW 62.6 km/h 62.6 km/h 72 % 0 mm 0.0 W/m2 CLR
23:53 -13.2 °C -15.8 °C 34808.1 hPa NNW 65.5 km/h 65.5 km/h 72 % 0 mm 0.0 W/m2 CLR
23:58 -13.2 °C -15.8 °C 34808.1 hPa NW 50.7 km/h 50.7 km/h 72 % 0 mm 0.0 W/m2 CLR
23:59 -13.2 °C -15.8 °C 34808.1 hPa NW 54.4 km/h 54.4 km/h 72 % 0 mm 0.0 W/m2 CLR
Lo Temps de Massalio
Compliments of Weather Underground - 1.75 mb